Route Details

Aircraft Information
Group: European Fleet
Types: A30F, A31F, B738
Route Data
Distance: 1056nm
Duration: 2h 39m
Origin METAR: LGAV 171120Z 07011KT 9999 SCT030 32/17 Q1010 NOSIG
Dest. METAR: EDDK 171120Z AUTO 26005KT 200V330 CAVOK 25/15 Q1011 NOSIG
Freight Data
(for Aug 18, 2022)
Load Factor:
43%
Manifested Cargo: 39,837lbs
Financial History
Total Freight: 173,551lbs
Average Load: 0lbs/flt
Fuel Used: 93,227lbs
Avg. Fuel Used: 0lbs/flt
Fuel Expense: $27,369
Avg. Fuel Expense: $0
Avg. Fuel Cost: $0/lbs
Total Gross Income: $702,528
Pilot Pay: $687
Total Expenses: $90,848
Total Revenue: $581,911
Average Revenue: $0

Capitol Logistics 559




LGAV
Eleftherios Venizelos International Airport
Athens, GR
EDDK
Cologne Bonn Airport
Cologne, DE